FYLZ/LUD METAR and TAF weather

Enter ICAO airport designator
Station Type Date Time Source
FYLZ METAR 2020/04/07 04:00 UTC NOAA

FYLZ 070400Z AUTO 17019KT //// // ////// 16/10 Q1015


Station Type Date Time Source
FYLZ Decoded METAR 2020/04/07 04:00 UTC NOAA

Luderitz / Diaz Point, Namibia (FYLZ) 26-41S 015-15E
Apr 07, 2020 - 12:00 AM EDT / 2020.04.07 0400 UTC
Wind: from the S (170 degrees) at 22 MPH (19 KT):0
Temperature: 60 F (16 C)
Dew Point: 50 F (10 C)
Relative Humidity: 67%
Pressure (altimeter): 29.97 in. Hg (1015 hPa)
ob: FYLZ 070400Z AUTO 17019KT //// // ////// 16/10 Q1015
cycle: 4

Station Type Date Time Source
FYLZ TAF 2014/11/15 15:19 UTC NOAA

TAF FYLZ 151400Z 1515/1524 18015G28KT CAVOK
BECMG 1518/1520 16020KT

Example: see airport list